Boyd Deep Canyon Reserve, California Weather observations

Data are for 10 minute period ending at time listed.
 Day   Time   Solar   Ave.   Ave.  Ave.  Vector  Max.   Baro.   Total    
  of    of     Rad.   Air    Rel.  Wind   Wind   Wind  Press.  Precip.   
Year   Day            Temp.  Hum.  Speed  Dir.   Gust                    
2017   (PST)  Kw/m2    F      %     mph   deg.    mph    mb.     in.     
-------------------------------------------------------------------------
 202    8:10   0.56   88.0    33    3.6     3     6.9   977.3    0.00 
 202    8:20   0.59   88.2    34    4.3     9     8.0   977.2    0.00 
 202    8:30   0.62   88.6    34    4.3     0     7.1   977.2    0.00 
 202    8:40   0.65   89.2    34    4.7   353     7.9   977.2    0.00 
 202    8:50   0.68   90.0    32    3.3   351     7.0   977.2    0.00 
 202    9:00   0.71   90.7    32    5.0     5     9.5   977.1    0.00 
 202    9:10   0.73   90.8    32    5.5   353     9.8   977.1    0.00 
 202    9:20   0.76   91.1    31    4.7   353     9.1   977.2    0.00 
 202    9:30   0.78   91.5    30    3.8   310     7.4   977.2    0.00 
 202    9:40   0.80   92.8    28    3.5   354     8.0   977.2    0.00 
 202    9:50   0.82   93.0    28    4.8     7     9.6   977.2    0.00 
 202   10:00   0.84   93.3    27    5.2   356    11.2   977.1    0.00 
 202   10:10   0.85   93.4    27    5.7   359    10.3   977.1    0.00 
 202   10:20   0.87   94.2    26    3.8   328    10.2   977.1    0.00 
 202   10:30   0.88   94.3    26    5.0    27    11.2   977.0    0.00 
 202   10:40   0.90   95.7    24    5.1   350    15.4   976.9    0.00 
 202   10:50   0.91   95.7    24    4.1   333     9.8   976.9    0.00 
 202   11:00   0.91   95.6    24    4.6   304     8.0   976.8    0.00 
 202   11:10   0.92   95.8    24    6.0   339    11.5   976.7    0.00 
 202   11:20   0.93   96.3    22    4.8     5    10.7   976.6    0.00 
 202   11:30   0.93   97.0    22    5.4   354    11.5   976.5    0.00 
 202   11:40   0.94   96.8    22    5.4   351    11.2   976.4    0.00 
 202   11:50   0.94   96.8    21    4.7    47    11.2   976.2    0.00 
 202   12:00   0.94   98.2    20    4.5   350    10.0   976.1    0.00 
 202   12:10   0.94   97.8    20    5.1   358    10.2   976.0    0.00 
 202   12:20   0.91   98.1    20    3.5   316    10.2   975.8    0.00 
 202   12:30   0.93   98.7    20    5.2   332    11.0   975.6    0.00 
 202   12:40   0.92   98.3    20    5.6    14    11.3   975.3    0.00 
 202   12:50   0.91   99.1    20    4.3   342    12.1   975.2    0.00 
 202   13:00   0.90  100.1    19    4.1     2    11.8   975.0    0.00 
 202   13:10   0.89  100.0    20    2.8     0     8.9   974.8    0.00 
 202   13:20   0.88  100.2    20    6.6   354    11.5   974.6    0.00 
 202   13:30   0.86  100.1    20    6.1     6    12.5   974.4    0.00 
 202   13:40   0.85  100.7    20    4.4   357     9.3   974.2    0.00 
 202   13:50   0.83  100.8    21    7.3   357    11.7   974.0    0.00 
 202   14:00   0.81  100.7    21    5.9   334    13.2   973.8    0.00 
 202   14:10   0.79  100.3    22    4.3   338     9.0   973.7    0.00 
 202   14:20   0.77  101.1    21    5.6   349    10.2   973.5    0.00 
 202   14:30   0.75  101.7    21    4.6   326     8.8   973.4    0.00 
 202   14:40   0.73  101.5    21    4.6     3     8.8   973.2    0.00 
 202   14:50   0.70  101.9    20    7.2   349    11.7   973.1    0.00 
 202   15:00   0.68  102.1    19    4.6   356     9.6   972.9    0.00 
 202   15:10   0.65  102.2    18    5.5   335     9.8   972.8    0.00 
 202   15:20   0.62  102.1    17    6.4   359    10.2   972.7    0.00 
 202   15:30   0.59  102.4    16    3.2   319     6.6   972.6    0.00 
 202   15:40   0.56  103.2    15    3.8   356     9.4   972.5    0.00 
 202   15:50   0.54  102.7    14    5.5     6     9.5   972.4    0.00 
 202   16:00   0.51  103.1    14    4.6   336    10.5   972.3    0.00 
 202   16:10   0.47  104.5    12    5.1   352    11.5   972.2    0.00 
 202   16:20   0.44  103.2    13    4.9   354    10.2   972.2    0.00 
 202   16:30   0.41  103.4    13    3.8    50     8.0   972.1    0.00 
 202   16:40   0.37  102.9    14    4.9   356     9.3   972.1    0.00 
 202   16:50   0.34  103.1    14    2.4    24     6.9   972.0    0.00 
 202   17:00   0.31  103.4    13    5.3     7     8.7   972.0    0.00 
 202   17:10   0.27  102.7    14    4.3   358     8.3   972.0    0.00 
 202   17:20   0.24  102.9    13    4.6     4     7.2   972.0    0.00 
 202   17:30   0.20  102.8    14    4.3    13     8.0   972.0    0.00 
 202   17:40   0.17  102.0    18    3.0    36     8.0   972.0    0.00 
 202   17:50   0.05  100.8    19    3.0   117     5.8   972.1    0.00 
 202   18:00   0.03  100.0    18    2.6   144     5.6   972.2    0.00 
 202   18:10   0.03  100.1    16    2.6   147     5.1   972.3    0.00 
 202   18:20   0.02   99.6    19    5.3    64     8.0   972.4    0.00 
 202   18:30   0.01   99.2    19    4.3    63     7.7   972.4    0.00 
 202   18:40   0.01   99.5    15    4.8   216    11.2   972.5    0.00 
 202   18:50   0.00   99.8    11    8.2   192    12.1   972.6    0.00 
 202   19:00   0.00   99.3    10    6.3   224    12.4   972.8    0.00 
 202   19:10   0.00   98.6    12    5.3   343    10.2   973.0    0.00 
 202   19:20   0.00   98.0    12    3.4    10     6.8   973.0    0.00 
 202   19:30   0.00   97.4    11    4.1   289     9.6   973.2    0.00 
 202   19:40   0.00   97.1    12    2.2   335     6.0   973.3    0.00 
 202   19:50   0.00   96.0    15    2.8    71     5.0   973.4    0.00 
 202   20:00   0.00   96.0    15    1.9   105     3.6   973.5    0.00 
 202   20:10   0.00   96.4    13    1.6   133     4.5   973.7    0.00 
 202   20:20   0.00   96.5    11    5.4   177     8.3   973.8    0.00 
 202   20:30   0.00   96.3    11    8.3   175    12.3   973.9    0.00 
 202   20:40   0.00   95.8    11    6.5   181    11.5   974.0    0.00 
 202   20:50   0.00   95.6    12    2.2   194     7.2   974.1    0.00 
 202   21:00   0.00   94.2    17    3.8   340     7.8   974.2    0.00 
 202   21:10   0.00   92.4    21    3.6     2     6.1   974.4    0.00 
 202   21:20   0.00   91.3    22    2.5    23     6.0   974.5    0.00 
 202   21:30   0.00   90.9    23    1.3   107     3.4   974.6    0.00 
 202   21:40   0.00   90.8    23    1.3   103     3.1   974.6    0.00 
 202   21:50   0.00   90.2    23    1.5    32     2.6   974.6    0.00 
 202   22:00   0.00   89.6    24    1.6    37     3.2   974.7    0.00 
 202   22:10   0.00   89.5    24    0.6    20     3.4   974.9    0.00 
 202   22:20   0.00   89.2    24    0.0     0     0.0   974.9    0.00 
 202   22:30   0.00   88.6    25    0.1    42     1.2   974.9    0.00 
 202   22:40   0.00   88.3    25    1.4    43     2.1   974.9    0.00 
 202   22:50   0.00   87.9    25    1.1    59     1.6   974.8    0.00 
 202   23:00   0.00   87.6    26    1.0    48     1.8   974.9    0.00 
 202   23:10   0.00   87.2    26    1.8    46     2.9   974.9    0.00 
 202   23:20   0.00   86.9    27    2.1    80     3.3   974.9    0.00 
 202   23:30   0.00   86.9    27    1.8    51     3.6   974.9    0.00 
 202   23:40   0.00   86.1    28    1.0    24     3.2   974.8    0.00 
 202   23:50   0.00   85.8    28    0.5   348     1.2   974.8    0.00 
 203    0:00   0.00   85.2    29    0.1   334     0.7   974.7    0.00 
 203    0:10   0.00   84.9    29    0.0     0     0.0   974.6    0.00 
 203    0:20   0.00   84.7    29    0.0     0     0.0   974.7    0.00 
 203    0:30   0.00   84.5    29    0.1   290     0.7   974.5    0.00 
 203    0:40   0.00   84.6    29    0.0     0     0.0   974.4    0.00 
 203    0:50   0.00   85.0    29    0.0     0     0.0   974.4    0.00 
 203    1:00   0.00   84.3    29    0.0     0     0.0   974.2    0.00 
 203    1:10   0.00   84.3    29    0.1    28     1.4   974.2    0.00 
 203    1:20   0.00   84.2    29    1.4    16     4.4   974.1    0.00 
 203    1:30   0.00   83.9    29    2.3    73     4.3   974.0    0.00 
 203    1:40   0.00   83.7    31    3.2    34     5.7   974.1    0.00 
 203    1:50   0.00   82.6    33    1.1    57     2.6   974.1    0.00 
 203    2:00   0.00   82.5    33    0.1    43     0.9   974.1    0.00 
 203    2:10   0.00   82.0    33    0.0     0     0.0   974.1    0.00 
 203    2:20   0.00   81.6    34    0.0     0     0.0   974.0    0.00 
 203    2:30   0.00   81.9    33    0.2   192     2.7   973.8    0.00 
 203    2:40   0.00   82.0    33    1.3     9     3.1   973.8    0.00 
 203    2:50   0.00   82.4    32    0.6    68     3.8   973.8    0.00 
 203    3:00   0.00   85.2    23    4.4   208     8.0   973.8    0.00 
 203    3:10   0.00   86.5    23    0.5   158     3.0   973.9    0.00 
 203    3:20   0.00   85.9    21    2.8   178     5.3   974.0    0.00 
 203    3:30   0.00   87.7    19    6.3   215     9.8   974.0    0.00 
 203    3:40   0.00   88.0    19    5.4   200     8.6   974.1    0.00 
 203    3:50   0.00   88.1    19    3.3   198     8.3   974.3    0.00 
 203    4:00   0.00   84.6    29    2.4    64     3.9   974.4    0.00 
 203    4:10   0.00   81.7    33    1.5    35     3.7   974.4    0.00 
 203    4:20   0.00   81.1    35    3.4    49     5.3   974.4    0.00 
 203    4:30   0.00   81.1    36    2.5    38     4.5   974.5    0.00 
 203    4:40   0.00   80.8    36    2.5    58     3.9   974.5    0.00 
 203    4:50   0.00   80.5    37    1.5    38     3.7   974.6    0.00 
 203    5:00   0.00   80.2    38    0.1   238     1.0   974.7    0.00 
 203    5:10   0.01   80.1    38    0.0     0     0.0   974.7    0.00 
 203    5:20   0.01   80.1    38    1.2    43     2.5   974.8    0.00 
 203    5:30   0.02   80.4    37    0.7   212     4.9   974.9    0.00 
 203    5:40   0.05   83.2    28    2.8   208     5.3   975.0    0.00 
 203    5:50   0.10   82.0    35    3.6    52     4.8   975.1    0.00 
 203    6:00   0.13   82.8    34    2.7    54     3.7   975.2    0.00 
 203    6:10   0.16   83.6    33    2.5    48     3.7   975.4    0.00 
 203    6:20   0.19   85.2    31    1.1    32     2.3   975.6    0.00 
 203    6:30   0.23   87.0    29    0.8   124     2.7   975.7    0.00 
 203    6:40   0.26   89.0    26    0.9   172     2.6   975.9    0.00 
 203    6:50   0.29   90.3    25    1.8   162     3.1   976.0    0.00 
 203    7:00   0.33   91.0    24    1.7   125     3.4   976.0    0.00 
 203    7:10   0.36   91.2    23    1.9     6     4.3   976.2    0.00 
 203    7:20   0.40   91.2    22    2.5    27     4.5   976.4    0.00 
 203    7:30   0.43   90.3    23    3.6   325     5.7   976.4    0.00 
 203    7:40   0.46   91.7    23    2.4   322     6.1   976.4    0.00 
 203    7:50   0.49   92.0    24    4.0    61     8.2   976.4    0.00 
 203    8:00   0.53   92.5    22    3.7     6     7.3   976.4    0.00 

Return to Boyd Deep Canyon Reserve graphs page.


Western Regional Climate Center,wrcc@dri.edu